This is the latest recevied weather packets stored in our database for station/object JL1LCW-13. If no packets are shown the sender has not sent any weather packets the latest 10 day(s).
| Time | Temp. | Humidity | Pressure | Rain* | Wind** | Luminosity | Snow |
|---|---|---|---|---|---|---|---|
| 1777967517 | 20° C | 54% | 1021 hPa | 0 mm | - | - | - |
| 1777966619 | 20° C | 53% | 1021 hPa | 0 mm | - | - | - |
| 1777963918 | 22.78° C | 48% | 1021 hPa | 0 mm | - | - | - |
| 1777963018 | 22.78° C | 49% | 1021 hPa | 0 mm | - | - | - |
| 1777960317 | 23.89° C | 35% | 1021 hPa | 0 mm | - | - | - |
| 1777959419 | 23.89° C | 36% | 1021 hPa | 0 mm | - | - | - |
| 1777956718 | 22.78° C | 36% | 1021 hPa | 0 mm | - | - | - |
| 1777955817 | 23.89° C | 40% | 1021 hPa | 0 mm | - | - | - |
| 1777953118 | 22.78° C | 41% | 1021 hPa | 0 mm | - | - | - |
| 1777952218 | 22.78° C | 41% | 1021 hPa | 0 mm | - | - | - |
| 1777949517 | 22.78° C | 39% | 1022 hPa | 0 mm | - | - | - |
| 1777948619 | 22.78° C | 44% | 1022 hPa | 0 mm | - | - | - |
| 1777945918 | 22.22° C | 43% | 1022 hPa | 0 mm | - | - | - |
| 1777945017 | 22.22° C | 46% | 1022 hPa | 0 mm | - | - | - |
| 1777942318 | 18.89° C | 47% | 1021 hPa | 0 mm | - | - | - |
| 1777941418 | 18.89° C | 48% | 1021 hPa | 0 mm | - | - | - |
| 1777938719 | 17.22° C | 57% | 1021 hPa | 0 mm | - | - | - |
| 1777937819 | 17.22° C | 59% | 1021 hPa | 0 mm | - | - | - |
| 1777935118 | 15° C | 64% | 1021 hPa | 0 mm | - | - | - |
| 1777934217 | 15° C | 66% | 1021 hPa | 0 mm | - | - | - |
| 1777931518 | 12.78° C | 73% | 1020 hPa | 0 mm | - | - | - |
| 1777930618 | 12.22° C | 75% | 1020 hPa | 0 mm | - | - | - |
| 1777927918 | 8.89° C | 93% | 1019 hPa | 0 mm | - | - | - |
| 1777927017 | 7.78° C | 94% | 1019 hPa | 0 mm | - | - | - |
| 1777924318 | 10° C | 84% | 1017 hPa | 0 mm | - | - | - |
* Rain latest hour (hover to see other rain measurements)
** Current wind speed in m/s (hover to see current wind gust speed)